Terminal Aerodrome Forecast
Issued by NWS

Home | Current Version | Previous Version | Text Only | Print | Product List | Glossary On
Versions: 1 2 3 4 5 6 7 8 9 10 11 12 13 14 15 16 17 18 19 20 21 22 23 24
000
FTUS43 KDMX 111819 AAA
TAFFOD
TAF AMD
KFOD 111819Z 1118/1218 32013G21KT P6SM VCSH OVC018
     FM120000 34015G25KT P6SM BKN035
     FM120100 34020G29KT P6SM BKN022
     FM120400 33019G28KT P6SM SCT050 SCT160
     FM121300 31008KT P6SM FEW240=

USA.gov is the U.S. government's official web portal to all federal, state and local government web resources and services.